sensor_id;sensor_type;location;lat;lon;timestamp;temperature;humidity
32446;DHT22;18899;50.748;7.102;2024-01-30T00:02:24;9.00;99.90
32446;DHT22;18899;50.748;7.102;2024-01-30T00:04:50;8.90;99.90
32446;DHT22;18899;50.748;7.102;2024-01-30T00:07:16;8.80;99.90
32446;DHT22;18899;50.748;7.102;2024-01-30T00:09:41;8.70;99.90
32446;DHT22;18899;50.748;7.102;2024-01-30T00:12:07;8.50;99.90
32446;DHT22;18899;50.748;7.102;2024-01-30T00:14:33;8.40;99.90
32446;DHT22;18899;50.748;7.102;2024-01-30T00:16:58;8.20;99.90
32446;DHT22;18899;50.748;7.102;2024-01-30T00:19:24;8.30;99.90
32446;DHT22;18899;50.748;7.102;2024-01-30T00:21:49;8.20;99.90
32446;DHT22;18899;50.748;7.102;2024-01-30T00:24:15;8.20;99.90
32446;DHT22;18899;50.748;7.102;2024-01-30T00:26:40;8.10;99.90
32446;DHT22;18899;50.748;7.102;2024-01-30T00:29:06;8.00;99.90
32446;DHT22;18899;50.748;7.102;2024-01-30T00:31:31;8.10;99.90
32446;DHT22;18899;50.748;7.102;2024-01-30T00:33:57;8.20;99.90
32446;DHT22;18899;50.748;7.102;2024-01-30T00:36:23;8.20;99.90
32446;DHT22;18899;50.748;7.102;2024-01-30T00:38:48;8.40;99.90
32446;DHT22;18899;50.748;7.102;2024-01-30T00:41:14;8.50;99.90
32446;DHT22;18899;50.748;7.102;2024-01-30T00:43:39;8.30;99.90
32446;DHT22;18899;50.748;7.102;2024-01-30T00:46:05;8.40;99.90
32446;DHT22;18899;50.748;7.102;2024-01-30T00:48:31;8.30;99.90
32446;DHT22;18899;50.748;7.102;2024-01-30T00:50:56;8.30;99.90
32446;DHT22;18899;50.748;7.102;2024-01-30T00:53:22;8.40;99.90
32446;DHT22;18899;50.748;7.102;2024-01-30T00:55:47;8.40;99.90
32446;DHT22;18899;50.748;7.102;2024-01-30T00:58:13;8.50;99.90
32446;DHT22;18899;50.748;7.102;2024-01-30T01:00:38;8.60;99.90
32446;DHT22;18899;50.748;7.102;2024-01-30T01:03:04;8.60;99.90
32446;DHT22;18899;50.748;7.102;2024-01-30T01:05:30;8.60;99.90
32446;DHT22;18899;50.748;7.102;2024-01-30T01:07:55;8.60;99.90
32446;DHT22;18899;50.748;7.102;2024-01-30T01:10:21;8.50;99.90
32446;DHT22;18899;50.748;7.102;2024-01-30T01:12:47;8.40;99.90
32446;DHT22;18899;50.748;7.102;2024-01-30T01:15:13;8.30;99.90
32446;DHT22;18899;50.748;7.102;2024-01-30T01:17:39;8.30;99.90
32446;DHT22;18899;50.748;7.102;2024-01-30T01:20:05;8.20;99.90
32446;DHT22;18899;50.748;7.102;2024-01-30T01:22:32;8.10;99.90
32446;DHT22;18899;50.748;7.102;2024-01-30T01:24:58;8.00;99.90
32446;DHT22;18899;50.748;7.102;2024-01-30T01:27:24;8.10;99.90
32446;DHT22;18899;50.748;7.102;2024-01-30T01:29:50;8.30;99.90
32446;DHT22;18899;50.748;7.102;2024-01-30T01:32:16;8.30;99.90
32446;DHT22;18899;50.748;7.102;2024-01-30T01:34:41;8.30;99.90
32446;DHT22;18899;50.748;7.102;2024-01-30T01:37:07;8.40;99.90
32446;DHT22;18899;50.748;7.102;2024-01-30T01:39:33;8.40;99.90
32446;DHT22;18899;50.748;7.102;2024-01-30T01:41:58;8.40;99.90
32446;DHT22;18899;50.748;7.102;2024-01-30T01:44:24;8.30;99.90
32446;DHT22;18899;50.748;7.102;2024-01-30T01:46:50;8.40;99.90
32446;DHT22;18899;50.748;7.102;2024-01-30T01:49:16;8.50;99.90
32446;DHT22;18899;50.748;7.102;2024-01-30T01:51:43;8.50;99.90
32446;DHT22;18899;50.748;7.102;2024-01-30T01:54:10;8.60;99.90
32446;DHT22;18899;50.748;7.102;2024-01-30T01:56:36;8.70;99.90
32446;DHT22;18899;50.748;7.102;2024-01-30T01:59:07;8.70;99.90
32446;DHT22;18899;50.748;7.102;2024-01-30T02:01:34;8.80;99.90
32446;DHT22;18899;50.748;7.102;2024-01-30T02:04:01;8.90;99.90
32446;DHT22;18899;50.748;7.102;2024-01-30T02:06:27;9.00;99.90
32446;DHT22;18899;50.748;7.102;2024-01-30T02:08:54;9.10;99.90
32446;DHT22;18899;50.748;7.102;2024-01-30T02:11:20;9.00;99.90
32446;DHT22;18899;50.748;7.102;2024-01-30T02:13:46;9.00;99.90
32446;DHT22;18899;50.748;7.102;2024-01-30T02:16:11;9.00;99.90
32446;DHT22;18899;50.748;7.102;2024-01-30T02:18:37;8.90;99.90
32446;DHT22;18899;50.748;7.102;2024-01-30T02:21:07;9.00;99.90
32446;DHT22;18899;50.748;7.102;2024-01-30T02:23:33;9.00;99.90
32446;DHT22;18899;50.748;7.102;2024-01-30T02:25:59;9.00;99.90
32446;DHT22;18899;50.748;7.102;2024-01-30T02:28:25;9.00;99.90
32446;DHT22;18899;50.748;7.102;2024-01-30T02:30:51;9.10;99.90
32446;DHT22;18899;50.748;7.102;2024-01-30T02:33:17;9.10;99.90
32446;DHT22;18899;50.748;7.102;2024-01-30T02:35:42;9.20;99.90
32446;DHT22;18899;50.748;7.102;2024-01-30T02:38:08;9.10;99.90
32446;DHT22;18899;50.748;7.102;2024-01-30T02:40:34;9.10;99.90
32446;DHT22;18899;50.748;7.102;2024-01-30T02:43:01;9.10;99.90
32446;DHT22;18899;50.748;7.102;2024-01-30T02:45:27;9.00;99.90
32446;DHT22;18899;50.748;7.102;2024-01-30T02:47:52;8.90;99.90
32446;DHT22;18899;50.748;7.102;2024-01-30T02:50:18;8.80;99.90
32446;DHT22;18899;50.748;7.102;2024-01-30T02:52:43;8.80;99.90
32446;DHT22;18899;50.748;7.102;2024-01-30T02:55:12;8.70;99.90
32446;DHT22;18899;50.748;7.102;2024-01-30T02:57:40;8.70;99.90
32446;DHT22;18899;50.748;7.102;2024-01-30T03:00:06;8.70;99.90
32446;DHT22;18899;50.748;7.102;2024-01-30T03:02:35;8.70;99.90
32446;DHT22;18899;50.748;7.102;2024-01-30T03:05:00;8.70;99.90
32446;DHT22;18899;50.748;7.102;2024-01-30T03:07:26;8.70;99.90
32446;DHT22;18899;50.748;7.102;2024-01-30T03:09:52;8.60;99.90
32446;DHT22;18899;50.748;7.102;2024-01-30T03:12:17;8.60;99.90
32446;DHT22;18899;50.748;7.102;2024-01-30T03:14:43;8.60;99.90
32446;DHT22;18899;50.748;7.102;2024-01-30T03:17:09;8.70;99.90
32446;DHT22;18899;50.748;7.102;2024-01-30T03:19:34;8.70;99.90
32446;DHT22;18899;50.748;7.102;2024-01-30T03:22:00;8.70;99.90
32446;DHT22;18899;50.748;7.102;2024-01-30T03:24:25;8.60;99.90
32446;DHT22;18899;50.748;7.102;2024-01-30T03:26:51;8.50;99.90
32446;DHT22;18899;50.748;7.102;2024-01-30T03:29:17;8.40;99.90
32446;DHT22;18899;50.748;7.102;2024-01-30T03:31:42;8.40;99.90
32446;DHT22;18899;50.748;7.102;2024-01-30T03:34:08;8.40;99.90
32446;DHT22;18899;50.748;7.102;2024-01-30T03:36:33;8.40;99.90
32446;DHT22;18899;50.748;7.102;2024-01-30T03:39:00;8.50;99.90
32446;DHT22;18899;50.748;7.102;2024-01-30T03:41:25;8.40;99.90
32446;DHT22;18899;50.748;7.102;2024-01-30T03:43:51;8.30;99.90
32446;DHT22;18899;50.748;7.102;2024-01-30T03:46:16;8.30;99.90
32446;DHT22;18899;50.748;7.102;2024-01-30T03:48:42;8.20;99.90
32446;DHT22;18899;50.748;7.102;2024-01-30T03:51:08;8.30;99.90
32446;DHT22;18899;50.748;7.102;2024-01-30T03:53:34;8.30;99.90
32446;DHT22;18899;50.748;7.102;2024-01-30T03:56:00;8.40;99.90
32446;DHT22;18899;50.748;7.102;2024-01-30T03:58:26;8.40;99.90
32446;DHT22;18899;50.748;7.102;2024-01-30T04:00:51;8.50;99.90
32446;DHT22;18899;50.748;7.102;2024-01-30T04:03:17;8.60;99.90
32446;DHT22;18899;50.748;7.102;2024-01-30T04:05:43;8.70;99.90
32446;DHT22;18899;50.748;7.102;2024-01-30T04:08:09;8.70;99.90
32446;DHT22;18899;50.748;7.102;2024-01-30T04:10:35;8.70;99.90
32446;DHT22;18899;50.748;7.102;2024-01-30T04:13:00;8.70;99.90
32446;DHT22;18899;50.748;7.102;2024-01-30T04:15:26;8.70;99.90
32446;DHT22;18899;50.748;7.102;2024-01-30T04:17:52;8.80;99.90
32446;DHT22;18899;50.748;7.102;2024-01-30T04:20:17;8.80;99.90
32446;DHT22;18899;50.748;7.102;2024-01-30T04:22:44;8.90;99.90
32446;DHT22;18899;50.748;7.102;2024-01-30T04:25:10;8.80;99.90
32446;DHT22;18899;50.748;7.102;2024-01-30T04:27:35;8.70;99.90
32446;DHT22;18899;50.748;7.102;2024-01-30T04:30:01;8.80;99.90
32446;DHT22;18899;50.748;7.102;2024-01-30T04:32:26;8.80;99.90
32446;DHT22;18899;50.748;7.102;2024-01-30T04:34:52;8.80;99.90
32446;DHT22;18899;50.748;7.102;2024-01-30T04:37:17;8.70;99.90
32446;DHT22;18899;50.748;7.102;2024-01-30T04:39:43;8.70;99.90
32446;DHT22;18899;50.748;7.102;2024-01-30T04:42:08;8.70;99.90
32446;DHT22;18899;50.748;7.102;2024-01-30T04:44:34;8.70;99.90
32446;DHT22;18899;50.748;7.102;2024-01-30T04:47:00;8.70;99.90
32446;DHT22;18899;50.748;7.102;2024-01-30T04:49:27;8.70;99.90
32446;DHT22;18899;50.748;7.102;2024-01-30T04:51:52;8.60;99.90
32446;DHT22;18899;50.748;7.102;2024-01-30T04:54:18;8.60;99.90
32446;DHT22;18899;50.748;7.102;2024-01-30T04:56:44;8.50;99.90
32446;DHT22;18899;50.748;7.102;2024-01-30T04:59:09;8.40;99.90
32446;DHT22;18899;50.748;7.102;2024-01-30T05:01:35;8.40;99.90
32446;DHT22;18899;50.748;7.102;2024-01-30T05:04:00;8.30;99.90
32446;DHT22;18899;50.748;7.102;2024-01-30T05:06:26;8.30;99.90
32446;DHT22;18899;50.748;7.102;2024-01-30T05:08:52;8.30;99.90
32446;DHT22;18899;50.748;7.102;2024-01-30T05:11:18;8.30;99.90
32446;DHT22;18899;50.748;7.102;2024-01-30T05:13:44;8.30;99.90
32446;DHT22;18899;50.748;7.102;2024-01-30T05:16:09;8.30;99.90
32446;DHT22;18899;50.748;7.102;2024-01-30T05:18:35;8.30;99.90
32446;DHT22;18899;50.748;7.102;2024-01-30T05:21:01;8.30;99.90
32446;DHT22;18899;50.748;7.102;2024-01-30T05:23:27;8.40;99.90
32446;DHT22;18899;50.748;7.102;2024-01-30T05:25:52;8.40;99.90
32446;DHT22;18899;50.748;7.102;2024-01-30T05:28:18;8.40;99.90
32446;DHT22;18899;50.748;7.102;2024-01-30T05:30:43;8.50;99.90
32446;DHT22;18899;50.748;7.102;2024-01-30T05:33:09;8.50;99.90
32446;DHT22;18899;50.748;7.102;2024-01-30T05:35:35;8.50;99.90
32446;DHT22;18899;50.748;7.102;2024-01-30T05:38:00;8.50;99.90
32446;DHT22;18899;50.748;7.102;2024-01-30T05:40:26;8.40;99.90
32446;DHT22;18899;50.748;7.102;2024-01-30T05:42:52;8.30;99.90
32446;DHT22;18899;50.748;7.102;2024-01-30T05:45:18;8.30;99.90
32446;DHT22;18899;50.748;7.102;2024-01-30T05:47:43;8.20;99.90
32446;DHT22;18899;50.748;7.102;2024-01-30T05:50:09;8.30;99.90
32446;DHT22;18899;50.748;7.102;2024-01-30T05:52:35;8.30;99.90
32446;DHT22;18899;50.748;7.102;2024-01-30T05:55:00;8.20;99.90
32446;DHT22;18899;50.748;7.102;2024-01-30T05:57:26;8.10;99.90
32446;DHT22;18899;50.748;7.102;2024-01-30T05:59:51;8.10;99.90
32446;DHT22;18899;50.748;7.102;2024-01-30T06:02:17;8.00;99.90
32446;DHT22;18899;50.748;7.102;2024-01-30T06:04:43;8.10;99.90
32446;DHT22;18899;50.748;7.102;2024-01-30T06:07:09;8.10;99.90
32446;DHT22;18899;50.748;7.102;2024-01-30T06:09:35;8.20;99.90
32446;DHT22;18899;50.748;7.102;2024-01-30T06:12:00;8.20;99.90
32446;DHT22;18899;50.748;7.102;2024-01-30T06:14:26;8.00;99.90
32446;DHT22;18899;50.748;7.102;2024-01-30T06:16:51;8.00;99.90
32446;DHT22;18899;50.748;7.102;2024-01-30T06:19:17;7.90;99.90
32446;DHT22;18899;50.748;7.102;2024-01-30T06:21:42;7.90;99.90
32446;DHT22;18899;50.748;7.102;2024-01-30T06:24:08;8.00;99.90
32446;DHT22;18899;50.748;7.102;2024-01-30T06:26:34;8.00;99.90
32446;DHT22;18899;50.748;7.102;2024-01-30T06:29:00;8.00;99.90
32446;DHT22;18899;50.748;7.102;2024-01-30T06:31:25;8.00;99.90
32446;DHT22;18899;50.748;7.102;2024-01-30T06:33:51;8.10;99.90
32446;DHT22;18899;50.748;7.102;2024-01-30T06:36:16;8.20;99.90
32446;DHT22;18899;50.748;7.102;2024-01-30T06:38:42;8.30;99.90
32446;DHT22;18899;50.748;7.102;2024-01-30T06:41:08;8.40;99.90
32446;DHT22;18899;50.748;7.102;2024-01-30T06:43:33;8.40;99.90
32446;DHT22;18899;50.748;7.102;2024-01-30T06:45:59;8.40;99.90
32446;DHT22;18899;50.748;7.102;2024-01-30T06:48:25;8.50;99.90
32446;DHT22;18899;50.748;7.102;2024-01-30T06:50:53;8.50;99.90
32446;DHT22;18899;50.748;7.102;2024-01-30T06:53:19;8.40;99.90
32446;DHT22;18899;50.748;7.102;2024-01-30T06:55:44;8.40;99.90
32446;DHT22;18899;50.748;7.102;2024-01-30T06:58:10;8.40;99.90
32446;DHT22;18899;50.748;7.102;2024-01-30T07:00:36;8.40;99.90
32446;DHT22;18899;50.748;7.102;2024-01-30T07:03:01;8.40;99.90
32446;DHT22;18899;50.748;7.102;2024-01-30T07:05:27;8.40;99.90
32446;DHT22;18899;50.748;7.102;2024-01-30T07:07:52;8.40;99.90
32446;DHT22;18899;50.748;7.102;2024-01-30T07:10:18;8.40;99.90
32446;DHT22;18899;50.748;7.102;2024-01-30T07:12:44;8.50;99.90
32446;DHT22;18899;50.748;7.102;2024-01-30T07:15:10;8.60;99.90
32446;DHT22;18899;50.748;7.102;2024-01-30T07:17:35;8.60;99.90
32446;DHT22;18899;50.748;7.102;2024-01-30T07:20:01;8.60;99.90
32446;DHT22;18899;50.748;7.102;2024-01-30T07:22:29;8.60;99.90
32446;DHT22;18899;50.748;7.102;2024-01-30T07:24:55;8.60;99.90
32446;DHT22;18899;50.748;7.102;2024-01-30T07:27:21;8.60;99.90
32446;DHT22;18899;50.748;7.102;2024-01-30T07:29:46;8.60;99.90
32446;DHT22;18899;50.748;7.102;2024-01-30T07:32:12;8.60;99.90
32446;DHT22;18899;50.748;7.102;2024-01-30T07:34:38;8.50;99.90
32446;DHT22;18899;50.748;7.102;2024-01-30T07:37:03;8.50;99.90
32446;DHT22;18899;50.748;7.102;2024-01-30T07:39:29;8.40;99.90
32446;DHT22;18899;50.748;7.102;2024-01-30T07:41:54;8.30;99.90
32446;DHT22;18899;50.748;7.102;2024-01-30T07:44:20;8.40;99.90
32446;DHT22;18899;50.748;7.102;2024-01-30T07:46:46;8.40;99.90
32446;DHT22;18899;50.748;7.102;2024-01-30T07:49:11;8.40;99.90
32446;DHT22;18899;50.748;7.102;2024-01-30T07:51:39;8.50;99.90
32446;DHT22;18899;50.748;7.102;2024-01-30T07:54:05;8.60;99.90
32446;DHT22;18899;50.748;7.102;2024-01-30T07:56:30;8.60;99.90
32446;DHT22;18899;50.748;7.102;2024-01-30T07:58:56;8.50;99.90
32446;DHT22;18899;50.748;7.102;2024-01-30T08:01:21;8.60;99.90
32446;DHT22;18899;50.748;7.102;2024-01-30T08:03:47;8.50;99.90
32446;DHT22;18899;50.748;7.102;2024-01-30T08:06:12;8.50;99.90
32446;DHT22;18899;50.748;7.102;2024-01-30T08:08:38;8.60;99.90
32446;DHT22;18899;50.748;7.102;2024-01-30T08:11:04;8.70;99.90
32446;DHT22;18899;50.748;7.102;2024-01-30T08:13:29;8.70;99.90
32446;DHT22;18899;50.748;7.102;2024-01-30T08:15:55;8.80;99.90
32446;DHT22;18899;50.748;7.102;2024-01-30T08:18:20;8.90;99.90
32446;DHT22;18899;50.748;7.102;2024-01-30T08:20:46;9.00;99.90
32446;DHT22;18899;50.748;7.102;2024-01-30T08:23:11;9.10;99.90
32446;DHT22;18899;50.748;7.102;2024-01-30T08:25:38;9.10;99.90
32446;DHT22;18899;50.748;7.102;2024-01-30T08:28:03;9.10;99.90
32446;DHT22;18899;50.748;7.102;2024-01-30T08:30:29;9.00;99.90
32446;DHT22;18899;50.748;7.102;2024-01-30T08:32:54;9.00;99.90
32446;DHT22;18899;50.748;7.102;2024-01-30T08:35:20;9.10;99.90
32446;DHT22;18899;50.748;7.102;2024-01-30T08:37:46;9.20;99.90
32446;DHT22;18899;50.748;7.102;2024-01-30T08:40:11;9.20;99.90
32446;DHT22;18899;50.748;7.102;2024-01-30T08:42:37;9.20;99.90
32446;DHT22;18899;50.748;7.102;2024-01-30T08:45:02;9.20;99.90
32446;DHT22;18899;50.748;7.102;2024-01-30T08:47:30;9.30;99.90
32446;DHT22;18899;50.748;7.102;2024-01-30T08:49:55;9.40;99.90
32446;DHT22;18899;50.748;7.102;2024-01-30T08:52:21;9.50;99.90
32446;DHT22;18899;50.748;7.102;2024-01-30T08:54:46;9.60;99.90
32446;DHT22;18899;50.748;7.102;2024-01-30T08:57:12;9.70;99.90
32446;DHT22;18899;50.748;7.102;2024-01-30T08:59:37;9.90;99.90
32446;DHT22;18899;50.748;7.102;2024-01-30T09:02:03;10.00;99.90
32446;DHT22;18899;50.748;7.102;2024-01-30T09:04:29;10.20;99.90
32446;DHT22;18899;50.748;7.102;2024-01-30T09:06:55;10.30;99.90
32446;DHT22;18899;50.748;7.102;2024-01-30T09:09:20;10.50;99.90
32446;DHT22;18899;50.748;7.102;2024-01-30T09:11:46;10.80;99.90
32446;DHT22;18899;50.748;7.102;2024-01-30T09:14:11;11.00;99.90
32446;DHT22;18899;50.748;7.102;2024-01-30T09:16:37;11.20;99.90
32446;DHT22;18899;50.748;7.102;2024-01-30T09:19:03;11.30;99.90
32446;DHT22;18899;50.748;7.102;2024-01-30T09:21:28;11.20;99.90
32446;DHT22;18899;50.748;7.102;2024-01-30T09:24:02;11.30;99.90
32446;DHT22;18899;50.748;7.102;2024-01-30T09:26:29;11.50;99.90
32446;DHT22;18899;50.748;7.102;2024-01-30T09:28:54;11.60;99.90
32446;DHT22;18899;50.748;7.102;2024-01-30T09:31:20;11.70;99.90
32446;DHT22;18899;50.748;7.102;2024-01-30T09:33:45;11.80;99.90
32446;DHT22;18899;50.748;7.102;2024-01-30T09:36:13;11.90;99.90
32446;DHT22;18899;50.748;7.102;2024-01-30T09:38:40;12.20;99.90
32446;DHT22;18899;50.748;7.102;2024-01-30T09:41:09;12.60;99.90
32446;DHT22;18899;50.748;7.102;2024-01-30T09:43:37;13.10;99.90
32446;DHT22;18899;50.748;7.102;2024-01-30T09:46:03;14.10;99.90
32446;DHT22;18899;50.748;7.102;2024-01-30T09:48:30;14.90;99.90
32446;DHT22;18899;50.748;7.102;2024-01-30T09:50:58;15.50;99.90
32446;DHT22;18899;50.748;7.102;2024-01-30T09:53:24;16.00;99.90
32446;DHT22;18899;50.748;7.102;2024-01-30T09:55:50;16.40;99.90
32446;DHT22;18899;50.748;7.102;2024-01-30T09:58:16;16.90;97.30
32446;DHT22;18899;50.748;7.102;2024-01-30T10:00:42;17.30;95.40
32446;DHT22;18899;50.748;7.102;2024-01-30T10:03:08;17.70;94.20
32446;DHT22;18899;50.748;7.102;2024-01-30T10:05:36;18.10;91.20
32446;DHT22;18899;50.748;7.102;2024-01-30T10:08:06;18.50;88.20
32446;DHT22;18899;50.748;7.102;2024-01-30T10:10:33;18.70;83.10
32446;DHT22;18899;50.748;7.102;2024-01-30T10:12:59;18.10;84.70
32446;DHT22;18899;50.748;7.102;2024-01-30T10:15:25;18.00;85.80
32446;DHT22;18899;50.748;7.102;2024-01-30T10:17:53;17.70;86.40
32446;DHT22;18899;50.748;7.102;2024-01-30T10:20:18;17.20;88.40
32446;DHT22;18899;50.748;7.102;2024-01-30T10:22:45;16.70;90.10
32446;DHT22;18899;50.748;7.102;2024-01-30T10:25:11;16.40;90.50
32446;DHT22;18899;50.748;7.102;2024-01-30T10:27:36;15.90;91.70
32446;DHT22;18899;50.748;7.102;2024-01-30T10:30:05;15.60;93.00
32446;DHT22;18899;50.748;7.102;2024-01-30T10:32:30;15.20;93.80
32446;DHT22;18899;50.748;7.102;2024-01-30T10:34:56;14.80;95.10
32446;DHT22;18899;50.748;7.102;2024-01-30T10:37:24;14.50;96.60
32446;DHT22;18899;50.748;7.102;2024-01-30T10:39:53;14.20;98.50
32446;DHT22;18899;50.748;7.102;2024-01-30T10:42:18;14.00;99.90
32446;DHT22;18899;50.748;7.102;2024-01-30T10:45:02;13.80;99.90
32446;DHT22;18899;50.748;7.102;2024-01-30T10:47:30;13.60;99.90
32446;DHT22;18899;50.748;7.102;2024-01-30T10:49:56;13.40;99.90
32446;DHT22;18899;50.748;7.102;2024-01-30T10:52:25;13.40;99.90
32446;DHT22;18899;50.748;7.102;2024-01-30T10:54:53;13.30;99.90
32446;DHT22;18899;50.748;7.102;2024-01-30T10:57:19;13.20;99.90
32446;DHT22;18899;50.748;7.102;2024-01-30T10:59:48;13.20;99.90
32446;DHT22;18899;50.748;7.102;2024-01-30T11:02:14;13.10;99.90
32446;DHT22;18899;50.748;7.102;2024-01-30T11:04:41;13.00;99.90
32446;DHT22;18899;50.748;7.102;2024-01-30T11:07:16;12.80;99.90
32446;DHT22;18899;50.748;7.102;2024-01-30T11:10:12;12.80;99.90
32446;DHT22;18899;50.748;7.102;2024-01-30T11:12:40;12.70;99.90
32446;DHT22;18899;50.748;7.102;2024-01-30T11:15:10;12.80;99.90
32446;DHT22;18899;50.748;7.102;2024-01-30T11:20:25;12.50;99.90
32446;DHT22;18899;50.748;7.102;2024-01-30T11:22:52;12.50;99.90
32446;DHT22;18899;50.748;7.102;2024-01-30T11:25:19;12.50;99.90
32446;DHT22;18899;50.748;7.102;2024-01-30T11:27:46;12.50;99.90
32446;DHT22;18899;50.748;7.102;2024-01-30T11:30:25;12.60;99.90
32446;DHT22;18899;50.748;7.102;2024-01-30T11:33:10;12.60;99.90
32446;DHT22;18899;50.748;7.102;2024-01-30T11:35:40;12.70;99.90
32446;DHT22;18899;50.748;7.102;2024-01-30T11:38:07;12.70;99.90
32446;DHT22;18899;50.748;7.102;2024-01-30T11:40:34;12.60;99.90
32446;DHT22;18899;50.748;7.102;2024-01-30T11:43:01;12.70;99.90
32446;DHT22;18899;50.748;7.102;2024-01-30T11:45:27;12.70;99.90
32446;DHT22;18899;50.748;7.102;2024-01-30T11:47:53;12.70;99.90
32446;DHT22;18899;50.748;7.102;2024-01-30T11:50:19;12.80;99.90
32446;DHT22;18899;50.748;7.102;2024-01-30T11:52:45;12.80;99.90
32446;DHT22;18899;50.748;7.102;2024-01-30T11:55:11;12.80;99.90
32446;DHT22;18899;50.748;7.102;2024-01-30T11:57:37;12.90;99.90
32446;DHT22;18899;50.748;7.102;2024-01-30T12:00:04;13.00;99.90
32446;DHT22;18899;50.748;7.102;2024-01-30T12:02:38;13.10;99.90
32446;DHT22;18899;50.748;7.102;2024-01-30T12:05:07;13.20;99.90
32446;DHT22;18899;50.748;7.102;2024-01-30T12:07:33;13.30;99.90
32446;DHT22;18899;50.748;7.102;2024-01-30T12:09:59;13.30;99.90
32446;DHT22;18899;50.748;7.102;2024-01-30T12:12:26;13.30;99.90
32446;DHT22;18899;50.748;7.102;2024-01-30T12:14:52;13.30;99.90
32446;DHT22;18899;50.748;7.102;2024-01-30T12:17:31;13.30;99.90
32446;DHT22;18899;50.748;7.102;2024-01-30T12:20:11;13.30;99.90
32446;DHT22;18899;50.748;7.102;2024-01-30T12:22:38;13.40;99.90
32446;DHT22;18899;50.748;7.102;2024-01-30T12:25:12;13.50;99.90
32446;DHT22;18899;50.748;7.102;2024-01-30T12:27:38;13.20;99.90
32446;DHT22;18899;50.748;7.102;2024-01-30T12:30:14;13.20;99.90
32446;DHT22;18899;50.748;7.102;2024-01-30T12:32:41;13.30;99.90
32446;DHT22;18899;50.748;7.102;2024-01-30T12:35:13;13.30;99.90
32446;DHT22;18899;50.748;7.102;2024-01-30T12:37:40;13.30;99.90
32446;DHT22;18899;50.748;7.102;2024-01-30T12:40:07;13.30;99.90
32446;DHT22;18899;50.748;7.102;2024-01-30T12:42:33;13.30;99.90
32446;DHT22;18899;50.748;7.102;2024-01-30T12:44:59;13.40;99.90
32446;DHT22;18899;50.748;7.102;2024-01-30T12:47:25;13.40;99.90
32446;DHT22;18899;50.748;7.102;2024-01-30T12:49:51;13.40;99.90
32446;DHT22;18899;50.748;7.102;2024-01-30T12:52:20;13.40;99.90
32446;DHT22;18899;50.748;7.102;2024-01-30T12:54:50;13.40;99.90
32446;DHT22;18899;50.748;7.102;2024-01-30T12:57:16;13.30;99.90
32446;DHT22;18899;50.748;7.102;2024-01-30T12:59:42;13.20;99.90
32446;DHT22;18899;50.748;7.102;2024-01-30T13:02:08;13.20;99.90
32446;DHT22;18899;50.748;7.102;2024-01-30T13:04:35;13.00;99.90
32446;DHT22;18899;50.748;7.102;2024-01-30T13:07:01;13.10;99.90
32446;DHT22;18899;50.748;7.102;2024-01-30T13:09:27;13.20;99.90
32446;DHT22;18899;50.748;7.102;2024-01-30T13:11:53;13.20;99.90
32446;DHT22;18899;50.748;7.102;2024-01-30T13:14:19;13.30;99.90
32446;DHT22;18899;50.748;7.102;2024-01-30T13:16:44;13.30;99.90
32446;DHT22;18899;50.748;7.102;2024-01-30T13:19:10;13.30;99.90
32446;DHT22;18899;50.748;7.102;2024-01-30T13:21:36;13.30;99.90
32446;DHT22;18899;50.748;7.102;2024-01-30T13:24:02;13.30;99.90
32446;DHT22;18899;50.748;7.102;2024-01-30T13:26:27;13.30;99.90
32446;DHT22;18899;50.748;7.102;2024-01-30T13:28:53;13.30;99.90
32446;DHT22;18899;50.748;7.102;2024-01-30T13:31:19;13.30;99.90
32446;DHT22;18899;50.748;7.102;2024-01-30T13:33:45;13.30;99.90
32446;DHT22;18899;50.748;7.102;2024-01-30T13:36:11;13.30;99.90
32446;DHT22;18899;50.748;7.102;2024-01-30T13:38:37;13.30;99.90
32446;DHT22;18899;50.748;7.102;2024-01-30T13:41:03;13.20;99.90
32446;DHT22;18899;50.748;7.102;2024-01-30T13:43:28;13.10;99.90
32446;DHT22;18899;50.748;7.102;2024-01-30T13:45:54;13.20;99.90
32446;DHT22;18899;50.748;7.102;2024-01-30T13:48:20;13.20;99.90
32446;DHT22;18899;50.748;7.102;2024-01-30T13:50:45;13.10;99.90
32446;DHT22;18899;50.748;7.102;2024-01-30T13:53:11;13.20;99.90
32446;DHT22;18899;50.748;7.102;2024-01-30T13:55:37;13.30;99.90
32446;DHT22;18899;50.748;7.102;2024-01-30T13:58:04;13.20;99.90
32446;DHT22;18899;50.748;7.102;2024-01-30T14:00:30;13.30;99.90
32446;DHT22;18899;50.748;7.102;2024-01-30T14:02:55;13.30;99.90
32446;DHT22;18899;50.748;7.102;2024-01-30T14:05:22;13.30;99.90
32446;DHT22;18899;50.748;7.102;2024-01-30T14:07:48;13.30;99.90
32446;DHT22;18899;50.748;7.102;2024-01-30T14:10:15;13.40;99.90
32446;DHT22;18899;50.748;7.102;2024-01-30T14:12:42;13.30;99.90
32446;DHT22;18899;50.748;7.102;2024-01-30T14:15:08;13.40;99.90
32446;DHT22;18899;50.748;7.102;2024-01-30T14:17:35;13.40;99.90
32446;DHT22;18899;50.748;7.102;2024-01-30T14:20:01;13.50;99.90
32446;DHT22;18899;50.748;7.102;2024-01-30T14:22:28;13.50;99.90
32446;DHT22;18899;50.748;7.102;2024-01-30T14:24:53;13.50;99.90
32446;DHT22;18899;50.748;7.102;2024-01-30T14:27:19;13.50;99.90
32446;DHT22;18899;50.748;7.102;2024-01-30T14:29:45;13.50;99.90
32446;DHT22;18899;50.748;7.102;2024-01-30T14:32:10;13.50;99.90
32446;DHT22;18899;50.748;7.102;2024-01-30T14:34:36;13.40;99.90
32446;DHT22;18899;50.748;7.102;2024-01-30T14:37:01;13.40;99.90
32446;DHT22;18899;50.748;7.102;2024-01-30T14:39:27;13.30;99.90
32446;DHT22;18899;50.748;7.102;2024-01-30T14:41:52;13.20;99.90
32446;DHT22;18899;50.748;7.102;2024-01-30T14:44:18;13.10;99.90
32446;DHT22;18899;50.748;7.102;2024-01-30T14:46:43;13.00;99.90
32446;DHT22;18899;50.748;7.102;2024-01-30T14:49:09;12.90;99.90
32446;DHT22;18899;50.748;7.102;2024-01-30T14:51:35;12.80;99.90
32446;DHT22;18899;50.748;7.102;2024-01-30T14:54:00;12.80;99.90
32446;DHT22;18899;50.748;7.102;2024-01-30T14:56:27;12.80;99.90
32446;DHT22;18899;50.748;7.102;2024-01-30T14:58:52;12.80;99.90
32446;DHT22;18899;50.748;7.102;2024-01-30T15:01:18;12.80;99.90
32446;DHT22;18899;50.748;7.102;2024-01-30T15:03:44;12.80;99.90
32446;DHT22;18899;50.748;7.102;2024-01-30T15:06:12;12.80;99.90
32446;DHT22;18899;50.748;7.102;2024-01-30T15:08:38;12.90;99.90
32446;DHT22;18899;50.748;7.102;2024-01-30T15:11:03;12.90;99.90
32446;DHT22;18899;50.748;7.102;2024-01-30T15:13:30;12.90;99.90
32446;DHT22;18899;50.748;7.102;2024-01-30T15:15:56;12.90;99.90
32446;DHT22;18899;50.748;7.102;2024-01-30T15:18:21;12.90;99.90
32446;DHT22;18899;50.748;7.102;2024-01-30T15:20:47;12.80;99.90
32446;DHT22;18899;50.748;7.102;2024-01-30T15:23:12;12.70;99.90
32446;DHT22;18899;50.748;7.102;2024-01-30T15:25:39;12.70;99.90
32446;DHT22;18899;50.748;7.102;2024-01-30T15:28:05;12.70;99.90
32446;DHT22;18899;50.748;7.102;2024-01-30T15:30:30;12.60;99.90
32446;DHT22;18899;50.748;7.102;2024-01-30T15:32:56;12.70;99.90
32446;DHT22;18899;50.748;7.102;2024-01-30T15:35:21;12.60;99.90
32446;DHT22;18899;50.748;7.102;2024-01-30T15:37:47;12.50;99.90